sensor_id;sensor_type;location;lat;lon;timestamp;temperature;humidity
65378;SHT31;51982;51.042;13.806;2022-12-16T00:00:14;0.17;79.51
65378;SHT31;51982;51.042;13.806;2022-12-16T00:02:41;0.22;79.56
65378;SHT31;51982;51.042;13.806;2022-12-16T00:05:06;0.17;79.44
65378;SHT31;51982;51.042;13.806;2022-12-16T00:07:32;0.22;79.53
65378;SHT31;51982;51.042;13.806;2022-12-16T00:09:57;0.22;79.57
65378;SHT31;51982;51.042;13.806;2022-12-16T00:12:23;0.20;79.60
65378;SHT31;51982;51.042;13.806;2022-12-16T00:14:48;0.24;79.67
65378;SHT31;51982;51.042;13.806;2022-12-16T00:17:13;0.32;79.53
65378;SHT31;51982;51.042;13.806;2022-12-16T00:19:38;0.24;79.27
65378;SHT31;51982;51.042;13.806;2022-12-16T00:22:04;0.25;79.47
65378;SHT31;51982;51.042;13.806;2022-12-16T00:24:29;0.25;79.49
65378;SHT31;51982;51.042;13.806;2022-12-16T00:26:55;0.31;79.31
65378;SHT31;51982;51.042;13.806;2022-12-16T00:29:20;0.31;79.30
65378;SHT31;51982;51.042;13.806;2022-12-16T00:31:46;0.32;79.19
65378;SHT31;51982;51.042;13.806;2022-12-16T00:34:12;0.30;79.18
65378;SHT31;51982;51.042;13.806;2022-12-16T00:36:38;0.31;79.21
65378;SHT31;51982;51.042;13.806;2022-12-16T00:39:03;0.36;79.14
65378;SHT31;51982;51.042;13.806;2022-12-16T00:41:28;0.30;79.05
65378;SHT31;51982;51.042;13.806;2022-12-16T00:43:54;0.32;79.09
65378;SHT31;51982;51.042;13.806;2022-12-16T00:46:19;0.31;79.16
65378;SHT31;51982;51.042;13.806;2022-12-16T00:48:44;0.25;79.24
65378;SHT31;51982;51.042;13.806;2022-12-16T00:51:09;0.28;79.27
65378;SHT31;51982;51.042;13.806;2022-12-16T00:53:35;0.34;79.21
65378;SHT31;51982;51.042;13.806;2022-12-16T00:56:05;0.36;79.19
65378;SHT31;51982;51.042;13.806;2022-12-16T00:58:31;0.34;79.07
65378;SHT31;51982;51.042;13.806;2022-12-16T01:00:56;0.40;79.00
65378;SHT31;51982;51.042;13.806;2022-12-16T01:03:21;0.36;78.96
65378;SHT31;51982;51.042;13.806;2022-12-16T01:05:47;0.40;78.86
65378;SHT31;51982;51.042;13.806;2022-12-16T01:08:12;0.36;78.87
65378;SHT31;51982;51.042;13.806;2022-12-16T01:10:37;0.34;78.99
65378;SHT31;51982;51.042;13.806;2022-12-16T01:13:03;0.18;79.01
65378;SHT31;51982;51.042;13.806;2022-12-16T01:15:28;0.22;79.32
65378;SHT31;51982;51.042;13.806;2022-12-16T01:17:53;0.27;79.37
65378;SHT31;51982;51.042;13.806;2022-12-16T01:20:18;0.31;79.29
65378;SHT31;51982;51.042;13.806;2022-12-16T01:22:44;0.20;79.23
65378;SHT31;51982;51.042;13.806;2022-12-16T01:25:10;0.06;79.68
65378;SHT31;51982;51.042;13.806;2022-12-16T01:27:37;0.11;79.77
65378;SHT31;51982;51.042;13.806;2022-12-16T01:30:02;0.10;79.96
65378;SHT31;51982;51.042;13.806;2022-12-16T01:32:28;0.18;80.00
65378;SHT31;51982;51.042;13.806;2022-12-16T01:34:53;0.14;79.95
65378;SHT31;51982;51.042;13.806;2022-12-16T01:37:19;0.24;79.97
65378;SHT31;51982;51.042;13.806;2022-12-16T01:39:46;0.30;80.02
65378;SHT31;51982;51.042;13.806;2022-12-16T01:42:14;0.36;79.80
65378;SHT31;51982;51.042;13.806;2022-12-16T01:44:42;0.36;79.64
65378;SHT31;51982;51.042;13.806;2022-12-16T01:47:18;0.25;79.74
65378;SHT31;51982;51.042;13.806;2022-12-16T01:49:53;0.14;79.96
65378;SHT31;51982;51.042;13.806;2022-12-16T01:52:24;0.22;80.10
65378;SHT31;51982;51.042;13.806;2022-12-16T01:55:05;0.30;80.01
65378;SHT31;51982;51.042;13.806;2022-12-16T01:57:51;0.34;79.90
65378;SHT31;51982;51.042;13.806;2022-12-16T02:00:18;0.37;79.88
65378;SHT31;51982;51.042;13.806;2022-12-16T02:02:45;0.37;79.78
65378;SHT31;51982;51.042;13.806;2022-12-16T02:05:13;0.40;79.75
65378;SHT31;51982;51.042;13.806;2022-12-16T02:07:55;0.40;79.70
65378;SHT31;51982;51.042;13.806;2022-12-16T02:10:28;0.32;79.81
65378;SHT31;51982;51.042;13.806;2022-12-16T02:21:51;0.30;80.06
65378;SHT31;51982;51.042;13.806;2022-12-16T02:25:00;0.38;79.93
65378;SHT31;51982;51.042;13.806;2022-12-16T02:27:41;0.40;79.80
65378;SHT31;51982;51.042;13.806;2022-12-16T02:30:30;0.42;79.65
65378;SHT31;51982;51.042;13.806;2022-12-16T02:41:04;0.24;79.78
65378;SHT31;51982;51.042;13.806;2022-12-16T02:43:53;0.31;79.88
65378;SHT31;51982;51.042;13.806;2022-12-16T02:46:24;0.32;79.70
65378;SHT31;51982;51.042;13.806;2022-12-16T02:48:51;0.37;79.69
65378;SHT31;51982;51.042;13.806;2022-12-16T02:51:16;0.31;79.34
65378;SHT31;51982;51.042;13.806;2022-12-16T02:53:43;0.24;79.81
65378;SHT31;51982;51.042;13.806;2022-12-16T02:59:20;0.22;79.92
65378;SHT31;51982;51.042;13.806;2022-12-16T03:01:56;0.24;79.98
65378;SHT31;51982;51.042;13.806;2022-12-16T03:04:36;0.37;79.98
65378;SHT31;51982;51.042;13.806;2022-12-16T03:07:03;0.41;79.82
65378;SHT31;51982;51.042;13.806;2022-12-16T03:09:32;0.30;79.68
65378;SHT31;51982;51.042;13.806;2022-12-16T03:12:02;0.24;79.83
65378;SHT31;51982;51.042;13.806;2022-12-16T03:14:31;0.27;79.80
65378;SHT31;51982;51.042;13.806;2022-12-16T03:16:58;0.30;79.72
65378;SHT31;51982;51.042;13.806;2022-12-16T03:19:25;0.31;79.76
65378;SHT31;51982;51.042;13.806;2022-12-16T03:21:59;0.27;79.69
65378;SHT31;51982;51.042;13.806;2022-12-16T03:24:26;0.27;79.82
65378;SHT31;51982;51.042;13.806;2022-12-16T03:26:58;0.28;79.74
65378;SHT31;51982;51.042;13.806;2022-12-16T03:32:30;0.10;79.96
65378;SHT31;51982;51.042;13.806;2022-12-16T03:35:11;0.13;80.17
65378;SHT31;51982;51.042;13.806;2022-12-16T03:37:39;0.08;80.17
65378;SHT31;51982;51.042;13.806;2022-12-16T03:40:07;0.08;80.06
65378;SHT31;51982;51.042;13.806;2022-12-16T03:42:34;0.11;80.04
65378;SHT31;51982;51.042;13.806;2022-12-16T03:45:01;0.20;79.85
65378;SHT31;51982;51.042;13.806;2022-12-16T03:47:27;0.13;79.92
65378;SHT31;51982;51.042;13.806;2022-12-16T03:49:53;0.10;79.98
65378;SHT31;51982;51.042;13.806;2022-12-16T03:52:18;0.07;80.20
65378;SHT31;51982;51.042;13.806;2022-12-16T03:54:43;0.11;80.22
65378;SHT31;51982;51.042;13.806;2022-12-16T03:57:08;0.25;80.30
65378;SHT31;51982;51.042;13.806;2022-12-16T03:59:34;0.28;80.07
65378;SHT31;51982;51.042;13.806;2022-12-16T04:01:59;0.25;79.40
65378;SHT31;51982;51.042;13.806;2022-12-16T04:04:24;0.25;79.60
65378;SHT31;51982;51.042;13.806;2022-12-16T04:06:50;0.24;79.55
65378;SHT31;51982;51.042;13.806;2022-12-16T04:09:35;0.30;79.45
65378;SHT31;51982;51.042;13.806;2022-12-16T04:12:00;0.22;79.39
65378;SHT31;51982;51.042;13.806;2022-12-16T04:14:44;0.18;79.43
65378;SHT31;51982;51.042;13.806;2022-12-16T04:17:28;0.21;79.56
65378;SHT31;51982;51.042;13.806;2022-12-16T04:20:14;0.20;79.21
65378;SHT31;51982;51.042;13.806;2022-12-16T04:23:08;0.27;79.23
65378;SHT31;51982;51.042;13.806;2022-12-16T04:25:53;0.32;79.30
65378;SHT31;51982;51.042;13.806;2022-12-16T04:28:18;0.38;79.31
65378;SHT31;51982;51.042;13.806;2022-12-16T04:30:43;0.42;79.04
65378;SHT31;51982;51.042;13.806;2022-12-16T04:33:11;0.41;78.77
65378;SHT31;51982;51.042;13.806;2022-12-16T04:35:56;0.47;78.93
65378;SHT31;51982;51.042;13.806;2022-12-16T04:38:40;0.48;78.59
65378;SHT31;51982;51.042;13.806;2022-12-16T04:41:23;0.40;78.47
65378;SHT31;51982;51.042;13.806;2022-12-16T04:44:08;0.27;78.64
65378;SHT31;51982;51.042;13.806;2022-12-16T04:46:51;0.37;78.85
65378;SHT31;51982;51.042;13.806;2022-12-16T04:49:35;0.42;78.65
65378;SHT31;51982;51.042;13.806;2022-12-16T04:52:21;0.28;78.03
65378;SHT31;51982;51.042;13.806;2022-12-16T04:55:05;0.24;78.24
65378;SHT31;51982;51.042;13.806;2022-12-16T04:57:54;0.30;78.72
65378;SHT31;51982;51.042;13.806;2022-12-16T05:00:39;0.31;78.55
65378;SHT31;51982;51.042;13.806;2022-12-16T05:03:23;0.44;78.48
65378;SHT31;51982;51.042;13.806;2022-12-16T05:06:07;0.47;78.63
65378;SHT31;51982;51.042;13.806;2022-12-16T05:08:51;0.54;78.63
65378;SHT31;51982;51.042;13.806;2022-12-16T05:11:35;0.34;77.70
65378;SHT31;51982;51.042;13.806;2022-12-16T05:14:19;0.30;78.01
65378;SHT31;51982;51.042;13.806;2022-12-16T05:17:03;0.31;77.94
65378;SHT31;51982;51.042;13.806;2022-12-16T05:19:47;0.38;78.06
65378;SHT31;51982;51.042;13.806;2022-12-16T05:22:31;0.42;78.21
65378;SHT31;51982;51.042;13.806;2022-12-16T05:25:15;0.48;77.62
65378;SHT31;51982;51.042;13.806;2022-12-16T05:27:59;0.51;78.04
65378;SHT31;51982;51.042;13.806;2022-12-16T05:30:43;0.49;77.80
65378;SHT31;51982;51.042;13.806;2022-12-16T05:33:27;0.44;77.59
65378;SHT31;51982;51.042;13.806;2022-12-16T05:36:11;0.38;77.97
65378;SHT31;51982;51.042;13.806;2022-12-16T05:38:54;0.41;78.06
65378;SHT31;51982;51.042;13.806;2022-12-16T05:41:38;0.27;78.05
65378;SHT31;51982;51.042;13.806;2022-12-16T05:44:22;0.36;78.15
65378;SHT31;51982;51.042;13.806;2022-12-16T05:47:07;0.34;77.87
65378;SHT31;51982;51.042;13.806;2022-12-16T05:49:51;0.37;78.11
65378;SHT31;51982;51.042;13.806;2022-12-16T05:52:35;0.40;77.36
65378;SHT31;51982;51.042;13.806;2022-12-16T05:55:18;0.32;77.35
65378;SHT31;51982;51.042;13.806;2022-12-16T05:58:03;0.32;77.31
65378;SHT31;51982;51.042;13.806;2022-12-16T06:00:46;0.37;77.67
65378;SHT31;51982;51.042;13.806;2022-12-16T06:03:30;0.32;77.29
65378;SHT31;51982;51.042;13.806;2022-12-16T06:06:14;0.40;77.80
65378;SHT31;51982;51.042;13.806;2022-12-16T06:08:58;0.52;77.62
65378;SHT31;51982;51.042;13.806;2022-12-16T06:11:43;0.59;77.43
65378;SHT31;51982;51.042;13.806;2022-12-16T06:14:26;0.64;77.29
65378;SHT31;51982;51.042;13.806;2022-12-16T06:17:10;0.66;77.47
65378;SHT31;51982;51.042;13.806;2022-12-16T06:19:54;0.65;77.44
65378;SHT31;51982;51.042;13.806;2022-12-16T06:22:38;0.66;77.36
65378;SHT31;51982;51.042;13.806;2022-12-16T06:25:22;0.65;77.26
65378;SHT31;51982;51.042;13.806;2022-12-16T06:28:06;0.71;77.10
65378;SHT31;51982;51.042;13.806;2022-12-16T06:30:50;0.75;77.24
65378;SHT31;51982;51.042;13.806;2022-12-16T06:33:34;0.68;77.23
65378;SHT31;51982;51.042;13.806;2022-12-16T06:36:18;0.62;77.35
65378;SHT31;51982;51.042;13.806;2022-12-16T06:39:02;0.62;77.54
65378;SHT31;51982;51.042;13.806;2022-12-16T06:41:46;0.65;79.98
65378;SHT31;51982;51.042;13.806;2022-12-16T06:44:30;0.66;79.00
65378;SHT31;51982;51.042;13.806;2022-12-16T06:47:14;0.72;79.88
65378;SHT31;51982;51.042;13.806;2022-12-16T06:49:59;0.64;77.92
65378;SHT31;51982;51.042;13.806;2022-12-16T06:52:43;0.55;77.83
65378;SHT31;51982;51.042;13.806;2022-12-16T06:55:27;0.61;77.85
65378;SHT31;51982;51.042;13.806;2022-12-16T06:58:11;0.66;77.69
65378;SHT31;51982;51.042;13.806;2022-12-16T07:00:55;0.69;77.72
65378;SHT31;51982;51.042;13.806;2022-12-16T07:03:39;0.73;77.80
65378;SHT31;51982;51.042;13.806;2022-12-16T07:06:23;0.71;77.59
65378;SHT31;51982;51.042;13.806;2022-12-16T07:09:07;0.73;77.76
65378;SHT31;51982;51.042;13.806;2022-12-16T07:12:08;0.78;77.52
65378;SHT31;51982;51.042;13.806;2022-12-16T07:14:52;0.81;77.73
65378;SHT31;51982;51.042;13.806;2022-12-16T07:17:38;0.86;77.42
65378;SHT31;51982;51.042;13.806;2022-12-16T07:20:21;0.72;77.33
65378;SHT31;51982;51.042;13.806;2022-12-16T07:23:05;0.76;77.70
65378;SHT31;51982;51.042;13.806;2022-12-16T07:25:49;0.62;77.75
65378;SHT31;51982;51.042;13.806;2022-12-16T07:28:33;0.66;77.91
65378;SHT31;51982;51.042;13.806;2022-12-16T07:31:17;0.66;77.99
65378;SHT31;51982;51.042;13.806;2022-12-16T07:34:01;0.62;77.97
65378;SHT31;51982;51.042;13.806;2022-12-16T07:36:51;0.62;78.31
65378;SHT31;51982;51.042;13.806;2022-12-16T07:39:38;0.65;78.18
65378;SHT31;51982;51.042;13.806;2022-12-16T07:42:23;0.65;78.40
65378;SHT31;51982;51.042;13.806;2022-12-16T07:45:07;0.68;78.46
65378;SHT31;51982;51.042;13.806;2022-12-16T07:47:52;0.62;78.64
65378;SHT31;51982;51.042;13.806;2022-12-16T07:50:36;0.65;78.61
65378;SHT31;51982;51.042;13.806;2022-12-16T07:53:20;0.75;78.49
65378;SHT31;51982;51.042;13.806;2022-12-16T07:56:05;0.73;78.37
65378;SHT31;51982;51.042;13.806;2022-12-16T07:58:49;0.73;78.52
65378;SHT31;51982;51.042;13.806;2022-12-16T08:01:33;0.79;78.68
65378;SHT31;51982;51.042;13.806;2022-12-16T08:04:20;0.75;78.55
65378;SHT31;51982;51.042;13.806;2022-12-16T08:07:04;0.81;78.77
65378;SHT31;51982;51.042;13.806;2022-12-16T08:09:47;0.88;78.75
65378;SHT31;51982;51.042;13.806;2022-12-16T08:12:32;0.81;78.47
65378;SHT31;51982;51.042;13.806;2022-12-16T08:15:15;0.75;78.36
65378;SHT31;51982;51.042;13.806;2022-12-16T08:17:59;0.72;78.51
65378;SHT31;51982;51.042;13.806;2022-12-16T08:20:43;0.71;78.63
65378;SHT31;51982;51.042;13.806;2022-12-16T08:23:27;0.73;78.77
65378;SHT31;51982;51.042;13.806;2022-12-16T08:26:11;0.76;78.77
65378;SHT31;51982;51.042;13.806;2022-12-16T08:28:55;0.76;78.48
65378;SHT31;51982;51.042;13.806;2022-12-16T08:31:39;0.85;78.53
65378;SHT31;51982;51.042;13.806;2022-12-16T08:34:23;0.85;78.34
65378;SHT31;51982;51.042;13.806;2022-12-16T08:37:11;0.83;78.51
65378;SHT31;51982;51.042;13.806;2022-12-16T08:39:54;0.89;78.40
65378;SHT31;51982;51.042;13.806;2022-12-16T08:42:39;0.91;78.23
65378;SHT31;51982;51.042;13.806;2022-12-16T08:45:23;0.96;78.55
65378;SHT31;51982;51.042;13.806;2022-12-16T08:48:07;0.92;78.45
65378;SHT31;51982;51.042;13.806;2022-12-16T08:50:51;0.92;78.41
65378;SHT31;51982;51.042;13.806;2022-12-16T08:53:35;0.89;78.33
65378;SHT31;51982;51.042;13.806;2022-12-16T08:56:19;0.89;78.31
65378;SHT31;51982;51.042;13.806;2022-12-16T08:59:04;0.92;78.31
65378;SHT31;51982;51.042;13.806;2022-12-16T09:01:48;1.00;78.32
65378;SHT31;51982;51.042;13.806;2022-12-16T09:04:31;1.04;78.21
65378;SHT31;51982;51.042;13.806;2022-12-16T09:07:15;1.09;78.16
65378;SHT31;51982;51.042;13.806;2022-12-16T09:09:59;1.07;78.00
65378;SHT31;51982;51.042;13.806;2022-12-16T09:12:43;1.16;78.07
65378;SHT31;51982;51.042;13.806;2022-12-16T09:15:27;1.23;77.98
65378;SHT31;51982;51.042;13.806;2022-12-16T09:18:11;1.26;77.63
65378;SHT31;51982;51.042;13.806;2022-12-16T09:20:55;1.32;77.58
65378;SHT31;51982;51.042;13.806;2022-12-16T09:23:39;1.32;77.70
65378;SHT31;51982;51.042;13.806;2022-12-16T09:26:23;1.37;77.47
65378;SHT31;51982;51.042;13.806;2022-12-16T09:29:06;1.37;76.94
65378;SHT31;51982;51.042;13.806;2022-12-16T09:31:50;1.36;76.81
65378;SHT31;51982;51.042;13.806;2022-12-16T09:34:35;1.46;76.93
65378;SHT31;51982;51.042;13.806;2022-12-16T09:37:19;1.51;76.74
65378;SHT31;51982;51.042;13.806;2022-12-16T09:40:03;1.53;76.77
65378;SHT31;51982;51.042;13.806;2022-12-16T09:42:52;1.61;76.68
65378;SHT31;51982;51.042;13.806;2022-12-16T09:45:49;1.64;76.37
65378;SHT31;51982;51.042;13.806;2022-12-16T09:48:50;1.70;76.46
65378;SHT31;51982;51.042;13.806;2022-12-16T09:51:41;1.81;75.98
65378;SHT31;51982;51.042;13.806;2022-12-16T09:54:28;1.81;75.79
65378;SHT31;51982;51.042;13.806;2022-12-16T09:57:14;1.78;75.63
65378;SHT31;51982;51.042;13.806;2022-12-16T10:00:05;1.81;75.83
65378;SHT31;51982;51.042;13.806;2022-12-16T10:02:50;1.93;75.78
65378;SHT31;51982;51.042;13.806;2022-12-16T10:08:58;2.06;75.39
65378;SHT31;51982;51.042;13.806;2022-12-16T10:11:55;2.06;75.29
65378;SHT31;51982;51.042;13.806;2022-12-16T10:14:56;1.98;75.46
65378;SHT31;51982;51.042;13.806;2022-12-16T10:17:44;1.95;76.06
65378;SHT31;51982;51.042;13.806;2022-12-16T10:20:54;2.11;76.30
65378;SHT31;51982;51.042;13.806;2022-12-16T10:27:10;2.21;76.22
65378;SHT31;51982;51.042;13.806;2022-12-16T10:29:55;2.33;75.51
65378;SHT31;51982;51.042;13.806;2022-12-16T10:32:44;2.24;75.36
65378;SHT31;51982;51.042;13.806;2022-12-16T10:35:45;2.36;76.01
65378;SHT31;51982;51.042;13.806;2022-12-16T10:38:42;2.42;75.25
65378;SHT31;51982;51.042;13.806;2022-12-16T10:41:30;2.45;75.42
65378;SHT31;51982;51.042;13.806;2022-12-16T10:47:10;2.76;74.86
65378;SHT31;51982;51.042;13.806;2022-12-16T10:49:53;2.75;74.58
65378;SHT31;51982;51.042;13.806;2022-12-16T10:52:56;2.79;74.90
65378;SHT31;51982;51.042;13.806;2022-12-16T10:58:53;2.75;74.69
65378;SHT31;51982;51.042;13.806;2022-12-16T11:01:37;2.80;74.79
65378;SHT31;51982;51.042;13.806;2022-12-16T11:04:35;2.64;74.58
65378;SHT31;51982;51.042;13.806;2022-12-16T11:10:24;2.75;74.95
65378;SHT31;51982;51.042;13.806;2022-12-16T11:13:35;2.69;74.79
65378;SHT31;51982;51.042;13.806;2022-12-16T11:16:21;2.56;74.63
65378;SHT31;51982;51.042;13.806;2022-12-16T11:19:28;2.57;75.25
65378;SHT31;51982;51.042;13.806;2022-12-16T11:22:30;2.59;74.92
65378;SHT31;51982;51.042;13.806;2022-12-16T11:25:20;2.43;75.44
65378;SHT31;51982;51.042;13.806;2022-12-16T11:28:11;2.33;75.09
65378;SHT31;51982;51.042;13.806;2022-12-16T11:30:58;2.30;74.84
65378;SHT31;51982;51.042;13.806;2022-12-16T11:33:43;2.22;75.39
65378;SHT31;51982;51.042;13.806;2022-12-16T11:36:29;2.19;75.84
65378;SHT31;51982;51.042;13.806;2022-12-16T11:39:17;2.25;75.63
65378;SHT31;51982;51.042;13.806;2022-12-16T11:42:02;2.33;75.87
65378;SHT31;51982;51.042;13.806;2022-12-16T11:44:50;2.28;75.35
65378;SHT31;51982;51.042;13.806;2022-12-16T11:47:45;2.29;75.95
65378;SHT31;51982;51.042;13.806;2022-12-16T11:50:33;2.26;75.82
65378;SHT31;51982;51.042;13.806;2022-12-16T11:53:34;2.26;75.90
65378;SHT31;51982;51.042;13.806;2022-12-16T11:56:31;2.18;75.62
65378;SHT31;51982;51.042;13.806;2022-12-16T12:02:01;2.14;75.36
65378;SHT31;51982;51.042;13.806;2022-12-16T12:04:48;2.14;75.82
65378;SHT31;51982;51.042;13.806;2022-12-16T12:07:48;2.16;75.76
65378;SHT31;51982;51.042;13.806;2022-12-16T12:17:19;2.25;75.59
65378;SHT31;51982;51.042;13.806;2022-12-16T12:20:33;2.16;74.63
65378;SHT31;51982;51.042;13.806;2022-12-16T12:23:47;2.08;75.53
65378;SHT31;51982;51.042;13.806;2022-12-16T12:26:35;2.05;75.56
65378;SHT31;51982;51.042;13.806;2022-12-16T12:29:34;2.05;75.68
65378;SHT31;51982;51.042;13.806;2022-12-16T12:32:49;2.08;75.00
65378;SHT31;51982;51.042;13.806;2022-12-16T12:38:52;1.68;75.05
65378;SHT31;51982;51.042;13.806;2022-12-16T12:44:50;1.73;75.68
65378;SHT31;51982;51.042;13.806;2022-12-16T12:47:42;1.73;74.80
65378;SHT31;51982;51.042;13.806;2022-12-16T12:50:41;1.65;75.03
65378;SHT31;51982;51.042;13.806;2022-12-16T12:53:49;1.63;75.31
65378;SHT31;51982;51.042;13.806;2022-12-16T12:56:47;1.65;75.37
65378;SHT31;51982;51.042;13.806;2022-12-16T13:00:00;1.68;75.06
65378;SHT31;51982;51.042;13.806;2022-12-16T13:03:06;1.75;74.98
65378;SHT31;51982;51.042;13.806;2022-12-16T13:05:55;1.57;74.40
65378;SHT31;51982;51.042;13.806;2022-12-16T13:08:43;1.54;75.30
65378;SHT31;51982;51.042;13.806;2022-12-16T13:11:27;1.54;74.93
65378;SHT31;51982;51.042;13.806;2022-12-16T13:20:40;1.15;75.00
65378;SHT31;51982;51.042;13.806;2022-12-16T13:23:30;1.22;75.45
65378;SHT31;51982;51.042;13.806;2022-12-16T13:26:19;1.30;75.20
65378;SHT31;51982;51.042;13.806;2022-12-16T13:34:57;1.23;74.80
65378;SHT31;51982;51.042;13.806;2022-12-16T13:37:50;1.07;74.42
65378;SHT31;51982;51.042;13.806;2022-12-16T13:40:56;0.92;74.64
65378;SHT31;51982;51.042;13.806;2022-12-16T13:46:51;0.88;74.89
65378;SHT31;51982;51.042;13.806;2022-12-16T13:55:19;1.06;75.37
65378;SHT31;51982;51.042;13.806;2022-12-16T13:58:15;1.04;74.93
65378;SHT31;51982;51.042;13.806;2022-12-16T14:01:03;1.07;75.34
65378;SHT31;51982;51.042;13.806;2022-12-16T14:03:49;1.13;76.65
65378;SHT31;51982;51.042;13.806;2022-12-16T14:06:36;0.86;74.81
65378;SHT31;51982;51.042;13.806;2022-12-16T14:09:38;0.82;75.39
65378;SHT31;51982;51.042;13.806;2022-12-16T14:19:23;0.69;74.84
65378;SHT31;51982;51.042;13.806;2022-12-16T14:25:24;0.62;74.71
65378;SHT31;51982;51.042;13.806;2022-12-16T14:28:30;0.58;75.00
65378;SHT31;51982;51.042;13.806;2022-12-16T14:31:21;0.62;75.34
65378;SHT31;51982;51.042;13.806;2022-12-16T14:34:12;0.44;74.94
65378;SHT31;51982;51.042;13.806;2022-12-16T14:36:57;0.54;75.37
65378;SHT31;51982;51.042;13.806;2022-12-16T14:39:41;0.65;75.53
65378;SHT31;51982;51.042;13.806;2022-12-16T14:42:30;0.57;75.31
65378;SHT31;51982;51.042;13.806;2022-12-16T14:45:25;0.45;74.98
65378;SHT31;51982;51.042;13.806;2022-12-16T14:51:30;0.38;75.33
65378;SHT31;51982;51.042;13.806;2022-12-16T14:57:07;0.25;75.04
65378;SHT31;51982;51.042;13.806;2022-12-16T15:00:23;0.25;75.52
65378;SHT31;51982;51.042;13.806;2022-12-16T15:03:11;0.24;75.34
65378;SHT31;51982;51.042;13.806;2022-12-16T15:05:56;0.14;75.34
65378;SHT31;51982;51.042;13.806;2022-12-16T15:08:51;0.10;75.66
65378;SHT31;51982;51.042;13.806;2022-12-16T15:11:37;0.14;75.40
65378;SHT31;51982;51.042;13.806;2022-12-16T15:14:29;0.11;75.44
65378;SHT31;51982;51.042;13.806;2022-12-16T15:17:20;0.27;75.63
65378;SHT31;51982;51.042;13.806;2022-12-16T15:20:09;0.34;75.24
65378;SHT31;51982;51.042;13.806;2022-12-16T15:22:57;0.32;75.09
65378;SHT31;51982;51.042;13.806;2022-12-16T15:25:48;0.22;74.72
65378;SHT31;51982;51.042;13.806;2022-12-16T15:28:38;0.25;75.05
65378;SHT31;51982;51.042;13.806;2022-12-16T15:31:35;0.24;74.89
65378;SHT31;51982;51.042;13.806;2022-12-16T15:37:03;0.10;74.98
65378;SHT31;51982;51.042;13.806;2022-12-16T15:39:47;0.10;75.19
65378;SHT31;51982;51.042;13.806;2022-12-16T15:42:32;0.18;75.43
65378;SHT31;51982;51.042;13.806;2022-12-16T15:45:22;0.24;75.07
65378;SHT31;51982;51.042;13.806;2022-12-16T15:48:15;0.24;74.98
65378;SHT31;51982;51.042;13.806;2022-12-16T15:51:01;0.10;74.92
65378;SHT31;51982;51.042;13.806;2022-12-16T15:53:44;-0.06;75.02
65378;SHT31;51982;51.042;13.806;2022-12-16T15:56:33;-0.09;75.12
65378;SHT31;51982;51.042;13.806;2022-12-16T15:59:25;0.08;75.32
65378;SHT31;51982;51.042;13.806;2022-12-16T16:02:27;0.04;75.44
65378;SHT31;51982;51.042;13.806;2022-12-16T16:05:18;0.07;75.29
65378;SHT31;51982;51.042;13.806;2022-12-16T16:08:03;0.22;75.33
65378;SHT31;51982;51.042;13.806;2022-12-16T16:10:47;0.06;74.96
65378;SHT31;51982;51.042;13.806;2022-12-16T16:13:31;0.04;75.31
65378;SHT31;51982;51.042;13.806;2022-12-16T16:16:15;0.01;75.74
65378;SHT31;51982;51.042;13.806;2022-12-16T16:18:59;0.03;75.57
65378;SHT31;51982;51.042;13.806;2022-12-16T16:21:43;-0.10;75.55
65378;SHT31;51982;51.042;13.806;2022-12-16T16:24:27;-0.27;75.74
65378;SHT31;51982;51.042;13.806;2022-12-16T16:27:12;-0.24;76.11
65378;SHT31;51982;51.042;13.806;2022-12-16T16:29:57;-0.13;76.19
65378;SHT31;51982;51.042;13.806;2022-12-16T16:32:41;-0.15;75.64
65378;SHT31;51982;51.042;13.806;2022-12-16T16:35:25;-0.07;75.86
65378;SHT31;51982;51.042;13.806;2022-12-16T16:38:10;-0.13;75.85
65378;SHT31;51982;51.042;13.806;2022-12-16T16:40:54;-0.17;75.88
65378;SHT31;51982;51.042;13.806;2022-12-16T16:43:38;-0.21;76.00
65378;SHT31;51982;51.042;13.806;2022-12-16T16:46:27;-0.14;76.16
65378;SHT31;51982;51.042;13.806;2022-12-16T16:49:21;-0.09;76.15
65378;SHT31;51982;51.042;13.806;2022-12-16T16:52:21;0.10;76.26
65378;SHT31;51982;51.042;13.806;2022-12-16T16:55:07;0.20;75.96
65378;SHT31;51982;51.042;13.806;2022-12-16T16:57:55;0.18;75.75
65378;SHT31;51982;51.042;13.806;2022-12-16T17:00:39;0.10;75.77
65378;SHT31;51982;51.042;13.806;2022-12-16T17:03:23;0.11;75.96
65378;SHT31;51982;51.042;13.806;2022-12-16T17:06:07;-0.07;75.76
65378;SHT31;51982;51.042;13.806;2022-12-16T17:08:51;-0.15;76.05
65378;SHT31;51982;51.042;13.806;2022-12-16T17:11:37;-0.04;76.23
65378;SHT31;51982;51.042;13.806;2022-12-16T17:14:21;0.03;76.35
65378;SHT31;51982;51.042;13.806;2022-12-16T17:17:05;-0.03;76.20
65378;SHT31;51982;51.042;13.806;2022-12-16T17:19:49;-0.09;76.25
65378;SHT31;51982;51.042;13.806;2022-12-16T17:22:33;-0.14;76.45
65378;SHT31;51982;51.042;13.806;2022-12-16T17:25:17;-0.09;76.51
65378;SHT31;51982;51.042;13.806;2022-12-16T17:28:02;-0.28;76.63
65378;SHT31;51982;51.042;13.806;2022-12-16T17:30:46;-0.21;76.78
65378;SHT31;51982;51.042;13.806;2022-12-16T17:33:30;-0.20;76.78
65378;SHT31;51982;51.042;13.806;2022-12-16T17:36:15;-0.17;76.85
65378;SHT31;51982;51.042;13.806;2022-12-16T17:38:59;-0.13;76.84
65378;SHT31;51982;51.042;13.806;2022-12-16T17:41:44;-0.18;77.05
65378;SHT31;51982;51.042;13.806;2022-12-16T17:44:28;-0.27;77.07
65378;SHT31;51982;51.042;13.806;2022-12-16T17:47:12;-0.13;77.28
65378;SHT31;51982;51.042;13.806;2022-12-16T17:49:58;-0.30;77.04
65378;SHT31;51982;51.042;13.806;2022-12-16T17:52:42;-0.27;77.23
65378;SHT31;51982;51.042;13.806;2022-12-16T17:55:26;-0.25;77.14
65378;SHT31;51982;51.042;13.806;2022-12-16T17:58:10;-0.25;77.32
65378;SHT31;51982;51.042;13.806;2022-12-16T18:00:59;-0.25;77.27
65378;SHT31;51982;51.042;13.806;2022-12-16T18:03:43;-0.15;77.39
65378;SHT31;51982;51.042;13.806;2022-12-16T18:06:27;-0.09;77.49
65378;SHT31;51982;51.042;13.806;2022-12-16T18:09:11;-0.14;77.22
65378;SHT31;51982;51.042;13.806;2022-12-16T18:11:55;-0.03;77.29
65378;SHT31;51982;51.042;13.806;2022-12-16T18:14:39;-0.03;77.07
65378;SHT31;51982;51.042;13.806;2022-12-16T18:17:23;-0.17;77.23
65378;SHT31;51982;51.042;13.806;2022-12-16T18:20:07;-0.20;77.20
65378;SHT31;51982;51.042;13.806;2022-12-16T18:22:52;-0.18;77.27
65378;SHT31;51982;51.042;13.806;2022-12-16T18:25:36;-0.15;77.25
65378;SHT31;51982;51.042;13.806;2022-12-16T18:28:20;-0.25;77.36
65378;SHT31;51982;51.042;13.806;2022-12-16T18:31:05;-0.25;77.69
65378;SHT31;51982;51.042;13.806;2022-12-16T18:34:06;-0.18;77.52
65378;SHT31;51982;51.042;13.806;2022-12-16T18:36:50;-0.18;77.58
65378;SHT31;51982;51.042;13.806;2022-12-16T18:39:34;-0.03;77.92
65378;SHT31;51982;51.042;13.806;2022-12-16T18:42:18;-0.09;77.36